MDT,Max TemperatureF,Mean TemperatureF,Min TemperatureF,Max Dew PointF,MeanDew PointF,Min DewpointF,Max Humidity, Mean Humidity, Min Humidity, Max Sea Level PressureIn, Mean Sea Level PressureIn, Min Sea Level PressureIn, Max VisibilityMiles, Mean VisibilityMiles, Min VisibilityMiles, Max Wind SpeedMPH, Mean Wind SpeedMPH, Max Gust SpeedMPH,PrecipitationIn, CloudCover, Events, WindDirDegrees
2013-7-1,94,77,59,46,39,30,53,32,11,30.02,29.93,29.85,10,10,10,20,8,26,0.00,0,,86
2013-7-2,94,77,60,43,38,32,43,28,12,30.26,29.92,29.79,10,10,9,18,8,26,0.00,0,,181
2013-7-3,93,75,57,44,38,30,51,32,12,30.05,29.88,29.75,10,8,0,32,7,46,T,1,Rain,125
2013-7-4,90,78,65,47,41,34,42,28,14,29.85,29.78,29.69,10,10,10,15,5,18,0.00,0,,112
2013-7-5,92,81,69,51,45,40,49,34,18,29.76,29.69,29.61,10,10,5,21,6,28,T,2,Rain,168
2013-7-6,90,79,68,51,46,43,49,34,19,30.10,29.84,29.71,10,9,1,20,6,26,T,2,Rain,91
2013-7-7,93,79,64,55,47,38,60,38,15,30.21,29.90,29.73,10,10,3,25,6,30,0.08,3,Rain-Thunderstorm,360
2013-7-8,92,76,59,55,47,34,78,46,14,30.21,29.95,29.88,10,10,10,21,6,25,T,0,,105
2013-7-9,96,81,65,46,39,24,44,27,9,30.26,29.97,29.89,10,10,8,17,7,20,T,0,,117
2013-7-10,98,82,65,45,39,34,42,27,11,29.97,29.87,29.75,10,10,10,15,6,22,0.00,0,,83
2013-7-11,94,79,64,63,53,41,87,54,20,30.11,29.93,29.77,10,8,2,28,8,31,0.44,4,Rain-Thunderstorm,143
2013-7-12,88,74,60,62,57,52,100,65,29,30.19,29.94,29.82,10,10,10,29,8,35,0.00,2,Thunderstorm,93
2013-7-13,87,74,60,63,58,53,97,66,34,30.17,29.99,29.88,10,10,2,18,7,25,0.22,2,Rain-Thunderstorm,108
2013-7-14,88,76,63,59,54,45,84,54,23,30.22,29.98,29.84,10,10,8,28,8,35,T,2,Rain-Thunderstorm,335
2013-7-15,91,76,60,61,52,48,65,45,24,30.16,29.91,29.73,10,10,6,26,8,37,0.01,2,Rain-Thunderstorm,112
2013-7-16,89,75,61,63,55,46,84,55,25,30.23,29.99,29.82,10,9,2,37,7,47,0.15,3,Rain-Thunderstorm,115
2013-7-17,88,75,62,59,56,50,90,60,29,30.30,30.04,29.92,10,10,4,30,5,41,0.18,3,Rain-Thunderstorm,78
2013-7-18,87,74,61,61,57,51,93,63,32,30.34,30.08,29.91,10,10,6,31,6,39,0.16,3,Rain-Thunderstorm,121
2013-7-19,88,75,61,59,54,51,84,58,32,30.12,29.97,29.84,10,10,5,33,9,41,0.00,1,Thunderstorm,93
2013-7-20,93,77,61,56,49,36,72,44,15,30.18,29.86,29.70,10,10,2,18,6,23,0.00,0,,148
2013-7-21,94,79,63,51,42,29,52,31,10,29.84,29.78,29.72,10,10,9,13,7,16,0.00,0,,143
2013-7-22,95,79,63,47,40,23,45,27,8,29.91,29.83,29.75,10,10,10,13,7,17,0.00,0,,174
2013-7-23,95,79,63,47,39,34,40,26,11,29.94,29.86,29.80,10,10,10,20,8,24,0.00,0,,165
2013-7-24,84,75,66,53,47,40,57,42,26,30.05,29.94,29.87,10,10,10,26,8,32,T,2,Rain,126
2013-7-25,90,77,63,52,48,40,60,39,18,29.99,29.94,29.88,10,10,10,18,7,24,T,1,,161
2013-7-26,93,77,60,51,43,32,60,36,12,30.06,29.97,29.88,10,10,10,14,6,17,0.00,0,,18
2013-7-27,90,77,63,60,49,39,87,57,26,30.08,29.93,29.80,10,10,9,29,8,35,0.09,2,Rain-Thunderstorm,99
2013-7-28,75,68,61,62,59,54,100,75,49,30.12,29.95,29.83,10,10,2,23,6,29,0.08,6,Rain,189
2013-7-29,81,70,58,58,55,53,100,70,39,30.30,30.07,29.91,10,8,1,39,7,46,0.65,4,Rain-Thunderstorm,104
2013-7-30,86,71,55,56,51,42,93,57,21,30.40,30.16,30.07,10,10,2,17,5,21,0.02,1,Rain,84
2013-7-31,92,75,57,52,45,35,72,43,14,30.41,30.08,29.96,10,10,5,15,6,18,0.00,0,,130